Terminal Aerodrome Forecast
Issued by NWS Twin Cities, MN

Home | Current Version | Previous Version | Text Only | Print | Product List | Glossary On
Versions: 1 2 3 4 5 6 7 8 9 10 11 12 13 14 15 16 17 18 19 20 21 22 23 24 25 26 27 28
000
FTUS43 KMPX 032333
TAFMSP
TAF
KMSP 032333Z 0400/0506 35013G22KT P6SM VCTS BKN060CB BKN100
      TEMPO 0400/0403 5SM -SHRA OVC045
     FM040300 01012KT P6SM VCSH BKN060 BKN120
     FM040500 35009KT P6SM BKN200
     FM041500 01014KT P6SM SCT250=

USA.gov is the U.S. government's official web portal to all federal, state and local government web resources and services.